Time;durP1;ratioP1;P1;durP2;ratioP2;P2;SDS_P1;SDS_P2;PMS_P1;PMS_P2;Temp;Humidity;BMP_temperature;BMP_pressure;BME280_temperature;BME280_humidity;BME280_pressure;Samples;Min_cycle;Max_cycle;Signal;HPM_P1;HPM_P2
2023/01/29 00:01:49;;;;;;;10.73;7.80;;;4.40;99.90;;;;;;5133839;27;20084;-60
2023/01/29 00:04:15;;;;;;;11.43;7.93;;;4.40;99.90;;;;;;5133945;27;20043;-59
2023/01/29 00:06:41;;;;;;;14.02;8.13;;;4.50;99.90;;;;;;5133830;27;20031;-60
2023/01/29 00:09:06;;;;;;;11.43;7.30;;;4.50;99.90;;;;;;5133520;27;20057;-59
2023/01/29 00:11:32;;;;;;;15.77;8.35;;;4.50;99.90;;;;;;5133709;27;20091;-60
2023/01/29 00:13:58;;;;;;;12.60;7.97;;;4.50;99.90;;;;;;5133463;27;20088;-59
2023/01/29 00:16:24;;;;;;;12.88;8.43;;;4.50;99.90;;;;;;5133557;27;20035;-59
2023/01/29 00:18:49;;;;;;;10.35;7.15;;;4.50;99.90;;;;;;5133581;27;20043;-60
2023/01/29 00:21:20;;;;;;;12.73;7.53;;;4.50;99.90;;;;;;5119117;27;20523;-59
2023/01/29 00:23:47;;;;;;;11.77;7.47;;;4.50;99.90;;;;;;5133407;27;20070;-60
2023/01/29 00:26:13;;;;;;;12.68;7.95;;;4.40;99.90;;;;;;5132010;27;20081;-60
2023/01/29 00:28:38;;;;;;;15.63;7.90;;;4.50;99.90;;;;;;5132139;27;20076;-60
2023/01/29 00:31:11;;;;;;;11.93;7.70;;;4.50;99.90;;;;;;5114044;27;20035;-60
2023/01/29 00:33:37;;;;;;;10.88;7.68;;;4.50;99.90;;;;;;5133263;27;20503;-59
2023/01/29 00:36:08;;;;;;;13.15;7.80;;;4.50;99.90;;;;;;5133043;27;20035;-59
2023/01/29 00:38:34;;;;;;;11.90;7.57;;;4.50;99.90;;;;;;5133461;27;20047;-60
2023/01/29 00:46:35;;;;;;;15.50;7.95;;;4.40;99.90;;;;;;5114407;27;20480;-59
2023/01/29 00:49:00;;;;;;;13.05;7.68;;;4.50;99.90;;;;;;5114743;27;20092;-59
2023/01/29 00:51:26;;;;;;;12.85;8.75;;;4.50;99.90;;;;;;5132984;27;20096;-59
2023/01/29 00:53:53;;;;;;;15.20;8.30;;;4.50;99.90;;;;;;5123799;27;20039;-60
2023/01/29 00:56:18;;;;;;;16.17;8.93;;;4.50;99.90;;;;;;5128964;27;20042;-59
2023/01/29 00:58:44;;;;;;;13.50;8.90;;;4.50;99.90;;;;;;5130910;27;20389;-59
2023/01/29 01:01:10;;;;;;;13.95;8.82;;;4.50;99.90;;;;;;5132472;27;20064;-59
2023/01/29 01:03:41;;;;;;;14.43;9.65;;;4.50;99.90;;;;;;5113474;27;20113;-60
2023/01/29 01:06:09;;;;;;;14.07;9.30;;;4.50;99.90;;;;;;5132591;27;20489;-60
2023/01/29 01:11:20;;;;;;;11.73;9.27;;;4.50;99.90;;;;;;5132652;27;20480;-59
2023/01/29 01:13:46;;;;;;;15.35;9.65;;;4.50;99.90;;;;;;5132449;27;20038;-60
2023/01/29 01:16:14;;;;;;;13.93;9.73;;;4.50;99.90;;;;;;5132818;27;20042;-59
2023/01/29 01:18:40;;;;;;;14.23;9.50;;;4.60;99.90;;;;;;5132603;27;20043;-60
2023/01/29 01:21:06;;;;;;;14.27;10.63;;;4.50;99.90;;;;;;5132862;27;20273;-60
2023/01/29 01:23:31;;;;;;;18.35;9.80;;;4.50;99.90;;;;;;5114004;28;20459;-60
2023/01/29 01:25:57;;;;;;;17.17;10.38;;;4.50;99.90;;;;;;5131406;27;20036;-59
2023/01/29 01:28:23;;;;;;;18.77;9.73;;;4.60;99.90;;;;;;5130701;28;20038;-59
2023/01/29 01:30:49;;;;;;;15.05;9.93;;;4.60;99.90;;;;;;5130641;28;20050;-60
2023/01/29 01:33:15;;;;;;;15.32;10.00;;;4.60;99.90;;;;;;5132678;28;20035;-60
2023/01/29 01:35:40;;;;;;;19.02;11.55;;;4.60;99.90;;;;;;5132724;28;20118;-59
2023/01/29 01:38:06;;;;;;;16.85;11.18;;;4.60;99.90;;;;;;5132867;28;20039;-60
2023/01/29 01:40:32;;;;;;;14.52;10.70;;;4.60;99.90;;;;;;5132395;28;20586;-60
2023/01/29 01:42:59;;;;;;;15.00;10.75;;;4.50;99.90;;;;;;5132326;28;20043;-60
2023/01/29 01:45:35;;;;;;;16.67;10.75;;;5.30;99.90;;;;;;5132481;28;20451;-60
2023/01/29 01:48:16;;;;;;;16.98;10.43;;;4.60;99.90;;;;;;5132120;28;20481;-59
2023/01/29 01:51:02;;;;;;;16.38;10.90;;;4.60;99.90;;;;;;5114079;28;20043;-60
2023/01/29 01:53:38;;;;;;;17.05;10.57;;;4.60;99.90;;;;;;5117011;28;20489;-60
2023/01/29 01:56:12;;;;;;;15.25;11.77;;;4.60;99.90;;;;;;5131991;28;20047;-59
2023/01/29 01:58:41;;;;;;;14.73;10.27;;;4.60;99.90;;;;;;5132229;28;20110;-60
2023/01/29 02:01:08;;;;;;;20.47;11.17;;;4.60;99.90;;;;;;5132274;28;20122;-59
2023/01/29 02:09:34;;;;;;;17.52;11.30;;;4.60;99.90;;;;;;5121860;28;20031;-59
2023/01/29 02:12:19;;;;;;;17.67;11.07;;;4.60;99.90;;;;;;5120208;28;20042;-60
2023/01/29 02:14:45;;;;;;;16.25;11.45;;;4.60;99.90;;;;;;5117696;27;20036;-60
2023/01/29 02:17:16;;;;;;;16.52;11.02;;;4.70;99.90;;;;;;5136190;27;20497;-59
2023/01/29 02:19:59;;;;;;;18.58;12.35;;;4.60;99.90;;;;;;5121764;27;20039;-60
2023/01/29 02:22:46;;;;;;;19.80;12.68;;;4.60;99.90;;;;;;5135652;27;20035;-59
2023/01/29 02:25:28;;;;;;;18.65;12.35;;;4.60;99.90;;;;;;5135902;27;20392;-59
2023/01/29 02:28:05;;;;;;;18.73;12.02;;;4.60;99.90;;;;;;5117687;27;20039;-59
2023/01/29 02:31:02;;;;;;;16.60;11.73;;;4.70;99.90;;;;;;5126447;27;20118;-60
2023/01/29 02:33:45;;;;;;;18.02;12.85;;;4.70;99.90;;;;;;5100330;28;20043;-60
2023/01/29 02:36:45;;;;;;;19.15;13.27;;;4.70;99.90;;;;;;5131375;27;20110;-60
2023/01/29 02:39:36;;;;;;;19.85;13.20;;;4.80;99.90;;;;;;5135474;27;20035;-59
2023/01/29 02:42:11;;;;;;;18.33;11.95;;;4.70;99.90;;;;;;5122870;27;20405;-60
2023/01/29 02:44:47;;;;;;;18.45;11.85;;;4.70;99.90;;;;;;5121252;27;20050;-59
2023/01/29 02:47:28;;;;;;;17.75;12.93;;;4.70;99.90;;;;;;5135437;27;20039;-60
2023/01/29 02:50:11;;;;;;;20.23;13.60;;;4.60;99.90;;;;;;5135488;27;20032;-60
2023/01/29 02:52:49;;;;;;;18.65;12.80;;;4.70;99.90;;;;;;5132378;27;20039;-60
2023/01/29 02:55:22;;;;;;;17.88;12.63;;;4.70;99.90;;;;;;5126861;27;20031;-59
2023/01/29 02:57:51;;;;;;;20.23;13.05;;;4.70;99.90;;;;;;5116207;27;20396;-59
2023/01/29 03:00:25;;;;;;;16.92;12.63;;;4.70;99.90;;;;;;5135345;27;20043;-60
2023/01/29 03:03:02;;;;;;;18.83;13.32;;;4.70;99.90;;;;;;5151017;27;20039;-60
2023/01/29 03:05:42;;;;;;;19.38;13.18;;;4.70;99.90;;;;;;5134906;27;20418;-60
2023/01/29 03:08:14;;;;;;;18.13;13.55;;;4.60;99.90;;;;;;5135039;27;20057;-60
2023/01/29 03:10:46;;;;;;;17.52;13.20;;;4.70;99.90;;;;;;5134969;27;20106;-60
2023/01/29 03:13:27;;;;;;;17.20;13.20;;;4.60;99.90;;;;;;5134769;27;20060;-60
2023/01/29 03:16:02;;;;;;;20.23;13.77;;;4.60;99.90;;;;;;5134910;27;20043;-59
2023/01/29 03:18:36;;;;;;;18.95;14.35;;;4.70;99.90;;;;;;5122323;27;20072;-60
2023/01/29 03:21:49;;;;;;;22.40;14.75;;;4.60;99.90;;;;;;5134420;27;20039;-60
2023/01/29 03:32:17;;;;;;;25.02;17.63;;;4.60;99.90;;;;;;5134665;27;20558;-60
2023/01/29 03:34:50;;;;;;;25.83;18.08;;;4.40;99.90;;;;;;5134529;27;20035;-60
2023/01/29 03:37:24;;;;;;;23.73;17.95;;;4.40;99.90;;;;;;5134448;27;20030;-60
2023/01/29 03:39:50;;;;;;;23.95;18.42;;;4.40;99.90;;;;;;5120325;27;20455;-60
2023/01/29 03:42:28;;;;;;;26.00;18.35;;;4.60;99.90;;;;;;5134326;27;20066;-60
2023/01/29 03:45:12;;;;;;;27.48;19.63;;;4.60;99.90;;;;;;5134198;27;20043;-60
2023/01/29 03:47:50;;;;;;;29.08;19.23;;;4.50;99.90;;;;;;5134358;27;20027;-60
2023/01/29 03:50:34;;;;;;;28.25;20.08;;;4.50;99.90;;;;;;5134345;27;20038;-60
2023/01/29 03:53:18;;;;;;;27.73;19.15;;;4.50;99.90;;;;;;5134300;27;20043;-60
2023/01/29 03:56:21;;;;;;;28.70;19.42;;;4.50;99.90;;;;;;5133808;27;20130;-60
2023/01/29 03:59:17;;;;;;;30.58;20.13;;;4.50;99.90;;;;;;5050725;28;20053;-60
2023/01/29 04:01:56;;;;;;;30.08;18.65;;;4.50;99.90;;;;;;5036582;28;20045;-60
2023/01/29 04:04:30;;;;;;;27.75;19.00;;;4.50;99.90;;;;;;5050399;28;20080;-59
2023/01/29 04:07:03;;;;;;;26.20;18.58;;;4.60;99.90;;;;;;5050646;28;20145;-60
2023/01/29 04:09:53;;;;;;;27.42;18.88;;;4.50;99.90;;;;;;5050502;28;20045;-60
2023/01/29 04:12:34;;;;;;;23.75;17.65;;;4.50;99.90;;;;;;5050387;28;20045;-59
2023/01/29 04:15:01;;;;;;;27.15;18.70;;;4.40;99.90;;;;;;5050263;28;20499;-59
2023/01/29 04:17:33;;;;;;;26.20;18.98;;;4.50;99.90;;;;;;5050113;28;20152;-59
2023/01/29 04:20:00;;;;;;;24.55;16.60;;;4.50;99.90;;;;;;5050388;28;20094;-59
2023/01/29 04:22:35;;;;;;;29.45;19.27;;;4.60;99.90;;;;;;5033335;28;20060;-59
2023/01/29 04:25:07;;;;;;;25.60;17.95;;;4.50;99.90;;;;;;5050280;28;20087;-59
2023/01/29 04:27:52;;;;;;;24.90;17.90;;;4.50;99.90;;;;;;5049855;28;20128;-60
2023/01/29 04:30:27;;;;;;;27.23;18.60;;;4.40;99.90;;;;;;5050397;28;20041;-60
2023/01/29 04:33:04;;;;;;;25.85;18.20;;;4.40;99.90;;;;;;5050025;28;20045;-60
2023/01/29 04:35:54;;;;;;;26.83;18.02;;;4.50;99.90;;;;;;5125507;27;20441;-60
2023/01/29 04:38:34;;;;;;;25.05;18.23;;;4.40;99.90;;;;;;5098205;28;20082;-60
2023/01/29 04:41:06;;;;;;;24.63;17.90;;;4.60;99.90;;;;;;5111399;27;20096;-60
2023/01/29 04:43:37;;;;;;;29.08;18.65;;;4.50;99.90;;;;;;5114557;27;20135;-60
2023/01/29 04:46:13;;;;;;;24.90;18.38;;;4.60;99.90;;;;;;5133120;27;20035;-59
2023/01/29 04:49:16;;;;;;;28.85;19.10;;;4.50;99.90;;;;;;5133054;27;20039;-59
2023/01/29 04:51:45;;;;;;;27.88;18.98;;;4.50;99.90;;;;;;5060484;28;20128;-59
2023/01/29 04:54:49;;;;;;;28.48;19.23;;;4.60;99.90;;;;;;5069562;28;20082;-60
2023/01/29 04:57:21;;;;;;;29.40;20.80;;;4.60;99.90;;;;;;4993865;28;20467;-59
2023/01/29 04:59:58;;;;;;;30.50;20.42;;;4.60;99.90;;;;;;5010062;28;20121;-60
2023/01/29 05:02:26;;;;;;;29.05;20.65;;;4.40;99.90;;;;;;5009676;28;20057;-59
2023/01/29 05:04:54;;;;;;;29.70;21.05;;;4.50;99.90;;;;;;5009893;28;20069;-59
2023/01/29 05:07:22;;;;;;;29.98;20.95;;;4.60;99.90;;;;;;5009720;28;20471;-60
2023/01/29 05:09:49;;;;;;;29.92;19.92;;;4.40;99.90;;;;;;5009868;28;20038;-59
2023/01/29 05:12:17;;;;;;;30.05;21.10;;;4.50;99.90;;;;;;4998107;28;20050;-59
2023/01/29 05:14:44;;;;;;;36.05;22.65;;;4.40;99.90;;;;;;5007894;28;20206;-60
2023/01/29 05:17:19;;;;;;;29.88;20.77;;;4.40;99.90;;;;;;5009605;28;20550;-59
2023/01/29 05:19:45;;;;;;;28.15;20.58;;;4.50;99.90;;;;;;5009764;28;20042;-60
2023/01/29 05:22:14;;;;;;;29.08;19.50;;;4.60;99.90;;;;;;5009528;28;20046;-60
2023/01/29 05:24:40;;;;;;;29.10;20.85;;;4.60;99.90;;;;;;5009822;28;20048;-59
2023/01/29 05:29:56;;;;;;;30.53;20.53;;;4.50;99.90;;;;;;5037760;28;20056;-60
2023/01/29 05:32:22;;;;;;;29.00;20.15;;;4.50;99.90;;;;;;5049287;28;20076;-59
2023/01/29 05:34:47;;;;;;;29.00;20.90;;;4.50;99.90;;;;;;5106316;28;20160;-60
2023/01/29 05:37:13;;;;;;;33.65;22.13;;;4.60;99.90;;;;;;5132489;28;20043;-59
2023/01/29 05:39:39;;;;;;;32.03;21.80;;;4.50;99.90;;;;;;5132375;28;20039;-60
2023/01/29 05:42:04;;;;;;;29.45;21.05;;;4.50;99.90;;;;;;5132416;28;20043;-60
2023/01/29 05:44:30;;;;;;;31.05;20.60;;;4.60;99.90;;;;;;5132172;28;20066;-60
2023/01/29 05:46:56;;;;;;;25.38;19.73;;;4.50;99.90;;;;;;5132527;28;20050;-61
2023/01/29 05:49:21;;;;;;;27.63;19.75;;;4.40;99.90;;;;;;5149871;27;20039;-59
2023/01/29 05:51:47;;;;;;;28.67;19.55;;;4.40;99.90;;;;;;5136829;27;20031;-60
2023/01/29 05:54:13;;;;;;;29.08;20.65;;;4.50;99.90;;;;;;5136247;27;20480;-60
2023/01/29 05:56:39;;;;;;;28.90;19.02;;;4.50;99.90;;;;;;5136349;27;20039;-60
2023/01/29 05:59:05;;;;;;;25.35;19.80;;;4.50;99.90;;;;;;5136154;27;20039;-60
2023/01/29 06:01:31;;;;;;;29.13;18.30;;;4.60;99.90;;;;;;5143394;27;20103;-60
2023/01/29 06:03:56;;;;;;;28.20;19.60;;;4.50;99.90;;;;;;5130964;27;20495;-59
2023/01/29 06:06:22;;;;;;;24.55;17.92;;;4.40;99.90;;;;;;5136397;27;20366;-59
2023/01/29 06:08:48;;;;;;;27.95;19.13;;;4.50;99.90;;;;;;5136662;27;20042;-60
2023/01/29 06:11:15;;;;;;;23.65;17.27;;;4.50;99.90;;;;;;5136038;27;20070;-59
2023/01/29 06:13:41;;;;;;;26.92;18.73;;;4.50;99.90;;;;;;5136037;27;20039;-59
2023/01/29 06:16:07;;;;;;;27.70;19.05;;;4.50;99.90;;;;;;5135991;27;20087;-60
2023/01/29 06:18:34;;;;;;;27.63;20.88;;;4.40;99.90;;;;;;5123058;27;20459;-60
2023/01/29 06:21:01;;;;;;;30.95;20.45;;;4.50;99.90;;;;;;5134989;27;20047;-59
2023/01/29 06:23:27;;;;;;;32.72;22.20;;;4.50;99.90;;;;;;5135770;27;20088;-59
2023/01/29 06:25:53;;;;;;;30.52;22.73;;;4.50;99.90;;;;;;5135753;27;20479;-59
2023/01/29 06:28:18;;;;;;;30.92;22.90;;;4.50;99.90;;;;;;5135779;27;20048;-60
2023/01/29 06:30:44;;;;;;;32.85;24.02;;;4.40;99.90;;;;;;5135874;27;20378;-60
2023/01/29 06:33:09;;;;;;;35.17;24.33;;;4.50;99.90;;;;;;5136010;27;20426;-60
2023/01/29 06:35:35;;;;;;;38.75;27.58;;;4.60;99.90;;;;;;5135882;27;20071;-59
2023/01/29 06:38:01;;;;;;;39.30;26.92;;;4.50;99.90;;;;;;5135389;27;20471;-60
2023/01/29 06:40:26;;;;;;;39.40;28.00;;;4.50;99.90;;;;;;5135630;27;20572;-60
2023/01/29 06:42:52;;;;;;;42.35;27.58;;;4.50;99.90;;;;;;5134979;27;20039;-60
2023/01/29 06:45:17;;;;;;;42.05;28.20;;;4.40;99.90;;;;;;5135605;27;20114;-60
2023/01/29 06:47:43;;;;;;;46.53;29.67;;;4.50;99.90;;;;;;5135624;27;20111;-60
2023/01/29 06:50:09;;;;;;;41.78;27.67;;;4.40;99.90;;;;;;5135300;27;20059;-59
2023/01/29 06:52:35;;;;;;;41.67;27.92;;;4.40;99.90;;;;;;5135462;27;20039;-59
2023/01/29 06:55:01;;;;;;;47.92;28.30;;;4.40;99.90;;;;;;5135228;27;20103;-59
2023/01/29 06:57:28;;;;;;;39.55;27.40;;;4.50;99.90;;;;;;5135655;27;20465;-59
2023/01/29 06:59:54;;;;;;;38.60;27.23;;;4.50;99.90;;;;;;5135014;27;20483;-59
2023/01/29 07:02:20;;;;;;;41.75;26.42;;;4.50;99.90;;;;;;5134375;27;20085;-60
2023/01/29 07:04:45;;;;;;;41.95;27.85;;;4.40;99.90;;;;;;5116480;27;20043;-60
2023/01/29 07:07:14;;;;;;;43.45;26.73;;;4.40;99.90;;;;;;5134822;27;20057;-60
2023/01/29 07:09:40;;;;;;;37.43;27.37;;;4.40;99.90;;;;;;5135037;27;20035;-60
2023/01/29 07:12:07;;;;;;;39.47;26.20;;;4.50;99.90;;;;;;5134886;27;20276;-61
2023/01/29 07:14:32;;;;;;;37.67;26.40;;;4.50;99.90;;;;;;5151316;27;20041;-60
2023/01/29 07:16:58;;;;;;;40.03;26.90;;;4.50;99.90;;;;;;5134825;27;20035;-60
2023/01/29 07:19:23;;;;;;;35.45;25.67;;;4.50;99.90;;;;;;5120458;27;20045;-60
2023/01/29 07:21:49;;;;;;;41.60;27.33;;;4.50;99.90;;;;;;5135188;27;20074;-60
2023/01/29 07:24:15;;;;;;;36.40;26.52;;;4.50;99.90;;;;;;5134396;27;20030;-60
2023/01/29 07:26:41;;;;;;;35.00;25.35;;;4.40;99.90;;;;;;5134380;27;20508;-60
2023/01/29 07:29:06;;;;;;;37.55;26.90;;;4.50;99.90;;;;;;5134617;27;20087;-60
2023/01/29 07:31:32;;;;;;;35.03;25.80;;;4.40;99.90;;;;;;5134588;27;20477;-60
2023/01/29 07:33:58;;;;;;;44.67;27.15;;;4.50;99.90;;;;;;5124880;27;20103;-60
2023/01/29 07:36:23;;;;;;;39.72;26.92;;;4.40;99.90;;;;;;5145843;27;20050;-60
2023/01/29 07:38:50;;;;;;;42.47;28.02;;;4.40;99.90;;;;;;5134538;27;20176;-60
2023/01/29 07:41:15;;;;;;;41.05;30.67;;;4.40;99.90;;;;;;5134443;27;20485;-61
2023/01/29 07:43:41;;;;;;;38.97;30.48;;;4.40;99.90;;;;;;5150316;27;20050;-60
2023/01/29 07:46:07;;;;;;;42.03;30.33;;;4.40;99.90;;;;;;5134343;27;20510;-60
2023/01/29 07:48:33;;;;;;;43.35;30.40;;;4.40;99.90;;;;;;5134272;27;20045;-60
2023/01/29 07:50:58;;;;;;;45.05;29.77;;;4.50;99.90;;;;;;5124516;27;20028;-60
2023/01/29 07:53:26;;;;;;;43.70;30.60;;;4.50;99.90;;;;;;5129482;27;20412;-60
2023/01/29 07:55:51;;;;;;;40.55;30.58;;;4.50;99.90;;;;;;5134354;27;20031;-60
2023/01/29 07:58:17;;;;;;;42.08;28.95;;;4.40;99.90;;;;;;5134227;27;20534;-60
2023/01/29 08:00:43;;;;;;;38.67;27.95;;;4.40;99.90;;;;;;5149900;27;20035;-60
2023/01/29 08:03:15;;;;;;;41.25;29.33;;;4.50;99.90;;;;;;5149843;27;20409;-60
2023/01/29 08:05:41;;;;;;;37.92;28.88;;;4.50;99.90;;;;;;5133935;27;20031;-60
2023/01/29 08:08:07;;;;;;;46.53;32.50;;;4.60;99.90;;;;;;5133854;27;20035;-60
2023/01/29 08:10:37;;;;;;;43.10;30.00;;;4.50;99.90;;;;;;5149547;27;20046;-60
2023/01/29 08:13:04;;;;;;;43.40;30.67;;;4.50;99.90;;;;;;5133669;27;20451;-60
2023/01/29 08:15:31;;;;;;;42.03;31.33;;;4.40;99.90;;;;;;5133637;27;20039;-60
2023/01/29 08:17:56;;;;;;;41.80;30.77;;;4.50;99.90;;;;;;5125851;27;20040;-60
2023/01/29 08:20:22;;;;;;;49.65;31.45;;;4.40;99.90;;;;;;5108929;27;20047;-60
2023/01/29 08:22:48;;;;;;;48.47;30.02;;;4.50;99.90;;;;;;5133758;27;20043;-60
2023/01/29 08:25:14;;;;;;;43.28;30.98;;;4.40;99.90;;;;;;5133547;27;20114;-61
2023/01/29 08:27:41;;;;;;;42.88;30.92;;;4.70;99.90;;;;;;5133499;27;20035;-60
2023/01/29 08:30:08;;;;;;;46.28;32.22;;;4.50;99.90;;;;;;5133177;27;20045;-61
2023/01/29 08:32:34;;;;;;;43.65;30.27;;;4.50;99.90;;;;;;5132468;27;20103;-60
2023/01/29 08:35:00;;;;;;;45.38;30.90;;;4.60;99.90;;;;;;5133169;27;20035;-60
2023/01/29 08:37:25;;;;;;;48.47;32.97;;;4.60;99.90;;;;;;5133554;27;20118;-60
2023/01/29 08:39:51;;;;;;;48.13;32.67;;;5.30;99.90;;;;;;5133396;27;20539;-61
2023/01/29 08:42:16;;;;;;;45.03;31.50;;;4.60;99.90;;;;;;5133550;27;20480;-61
2023/01/29 08:44:42;;;;;;;46.63;32.30;;;4.50;99.90;;;;;;5132813;27;20408;-60
2023/01/29 08:47:08;;;;;;;49.22;32.80;;;4.50;99.90;;;;;;5132999;27;20046;-60
2023/01/29 08:49:34;;;;;;;48.97;34.13;;;4.60;99.90;;;;;;5133279;27;20118;-60
2023/01/29 08:51:59;;;;;;;45.90;31.85;;;4.30;99.90;;;;;;5132900;27;20042;-60
2023/01/29 08:54:25;;;;;;;47.17;33.10;;;4.40;99.90;;;;;;5132897;27;20035;-60
2023/01/29 08:56:51;;;;;;;50.15;33.22;;;4.50;99.90;;;;;;5133139;27;20039;-61
2023/01/29 08:59:17;;;;;;;48.58;33.40;;;4.50;99.90;;;;;;5132073;27;20401;-60
2023/01/29 09:01:42;;;;;;;50.10;32.20;;;4.60;99.90;;;;;;5110415;27;20031;-60
2023/01/29 09:04:08;;;;;;;46.67;32.78;;;4.50;99.90;;;;;;5132423;27;20031;-60
2023/01/29 09:06:34;;;;;;;47.72;33.78;;;4.60;99.90;;;;;;5132729;27;20135;-60
2023/01/29 09:08:59;;;;;;;48.88;33.05;;;4.40;99.90;;;;;;5131292;27;20035;-60
2023/01/29 09:11:25;;;;;;;47.58;31.92;;;4.50;99.90;;;;;;5132948;27;20034;-60
2023/01/29 09:13:51;;;;;;;50.60;32.67;;;4.80;99.90;;;;;;5132773;27;20035;-60
2023/01/29 09:16:16;;;;;;;49.65;31.65;;;4.60;99.90;;;;;;5132844;27;20404;-60
2023/01/29 09:18:42;;;;;;;48.40;31.85;;;4.70;99.90;;;;;;5130297;27;20039;-60
2023/01/29 09:21:08;;;;;;;46.67;32.03;;;4.80;99.90;;;;;;5132345;27;20085;-60
2023/01/29 09:23:33;;;;;;;48.20;31.65;;;4.60;99.90;;;;;;5132073;27;20046;-60
2023/01/29 09:25:59;;;;;;;45.28;31.38;;;4.80;99.90;;;;;;5132865;27;20042;-60
2023/01/29 09:28:25;;;;;;;43.83;31.20;;;4.90;99.90;;;;;;5131383;27;20465;-61
2023/01/29 09:30:51;;;;;;;50.67;33.05;;;4.70;99.90;;;;;;5131011;28;20072;-60
2023/01/29 09:33:17;;;;;;;48.55;31.67;;;4.80;99.90;;;;;;5131141;28;20027;-61
2023/01/29 09:35:45;;;;;;;45.47;31.10;;;4.80;99.90;;;;;;5132083;28;20031;-60
2023/01/29 09:38:11;;;;;;;45.22;30.35;;;4.80;99.90;;;;;;5148630;27;20049;-60
2023/01/29 09:40:46;;;;;;;46.30;29.95;;;4.90;99.90;;;;;;5132276;28;20118;-60
2023/01/29 09:43:21;;;;;;;46.88;30.48;;;4.90;99.90;;;;;;5132146;28;20043;-60
2023/01/29 09:46:11;;;;;;;45.95;30.70;;;5.00;99.90;;;;;;5132338;28;20043;-60
2023/01/29 09:48:37;;;;;;;46.25;29.65;;;4.90;99.90;;;;;;5132462;28;20075;-61
2023/01/29 09:51:11;;;;;;;45.55;30.45;;;4.90;99.90;;;;;;5131939;28;20094;-60
2023/01/29 09:53:48;;;;;;;48.00;29.73;;;4.90;99.90;;;;;;5132325;28;20043;-61
2023/01/29 09:56:19;;;;;;;46.08;29.77;;;5.10;99.90;;;;;;5132200;28;20056;-60
2023/01/29 09:58:45;;;;;;;43.75;28.38;;;5.00;99.90;;;;;;5132060;28;20043;-60
2023/01/29 10:01:14;;;;;;;44.05;29.45;;;5.10;99.90;;;;;;5131999;28;20061;-59
2023/01/29 10:03:49;;;;;;;43.67;29.48;;;5.00;99.90;;;;;;5148110;27;20489;-61
2023/01/29 10:06:35;;;;;;;49.65;30.90;;;5.00;99.90;;;;;;5131868;28;20028;-60
2023/01/29 10:09:04;;;;;;;50.95;32.22;;;5.00;99.90;;;;;;5106206;28;20497;-61
2023/01/29 10:11:48;;;;;;;50.20;30.85;;;4.90;99.90;;;;;;5132054;28;20122;-61
2023/01/29 10:14:36;;;;;;;48.50;30.90;;;5.00;99.90;;;;;;5132193;28;20057;-60
2023/01/29 10:17:20;;;;;;;48.65;31.75;;;5.00;99.90;;;;;;5147842;27;20083;-60
2023/01/29 10:20:04;;;;;;;42.70;31.13;;;5.10;99.90;;;;;;5123718;28;20465;-60
2023/01/29 10:23:01;;;;;;;52.08;32.97;;;4.90;99.90;;;;;;5132048;28;20043;-60
2023/01/29 10:25:27;;;;;;;51.53;32.95;;;4.90;99.90;;;;;;5113421;28;20047;-60
2023/01/29 10:27:56;;;;;;;51.25;33.28;;;5.10;99.90;;;;;;5131499;28;20084;-60
2023/01/29 10:30:34;;;;;;;;;;;5.00;99.90;;;;;;5128837;28;20038;-60
2023/01/29 10:33:05;;;;;;;54.85;32.28;;;5.00;99.90;;;;;;5130526;28;19922;-60
2023/01/29 10:35:35;;;;;;;49.58;32.55;;;5.10;99.90;;;;;;5133596;27;20031;-60
2023/01/29 10:38:37;;;;;;;52.22;32.83;;;5.00;99.90;;;;;;5135521;27;20107;-60
2023/01/29 10:41:09;;;;;;;55.38;32.60;;;5.00;99.90;;;;;;5052085;28;20053;-60
2023/01/29 10:44:03;;;;;;;59.25;31.52;;;5.10;99.90;;;;;;5051838;28;20503;-60
2023/01/29 10:46:47;;;;;;;51.67;33.53;;;5.20;99.90;;;;;;5052103;28;20041;-60
2023/01/29 10:49:45;;;;;;;51.55;32.17;;;5.20;99.90;;;;;;5052053;28;20420;-60
2023/01/29 10:52:25;;;;;;;49.15;32.58;;;5.00;99.90;;;;;;5052105;28;20051;-60
2023/01/29 10:55:17;;;;;;;48.83;30.52;;;5.00;99.90;;;;;;5051860;28;20135;-60
2023/01/29 10:58:03;;;;;;;54.47;33.58;;;5.00;99.90;;;;;;5052089;28;20072;-60
2023/01/29 11:00:38;;;;;;;52.05;31.70;;;5.00;99.90;;;;;;5051711;28;20033;-60
2023/01/29 11:03:17;;;;;;;52.17;32.38;;;5.20;99.90;;;;;;5051720;28;20056;-61
2023/01/29 11:06:00;;;;;;;55.05;33.63;;;5.00;99.90;;;;;;5051421;28;20124;-60
2023/01/29 11:08:49;;;;;;;55.28;33.60;;;5.20;99.90;;;;;;5051510;28;20045;-60
2023/01/29 11:11:16;;;;;;;54.72;32.63;;;5.20;99.90;;;;;;5011709;28;20049;-60
2023/01/29 11:13:47;;;;;;;53.83;33.55;;;5.20;99.90;;;;;;5011732;28;20057;-61
2023/01/29 11:16:13;;;;;;;52.47;33.58;;;5.30;99.90;;;;;;5011687;28;20050;-60
2023/01/29 11:18:59;;;;;;;53.15;34.13;;;5.20;99.90;;;;;;5027996;28;20048;-60
2023/01/29 11:21:27;;;;;;;57.65;32.75;;;5.20;99.90;;;;;;5040846;28;20070;-60
2023/01/29 11:24:06;;;;;;;53.88;32.63;;;5.30;99.90;;;;;;5051216;28;20499;-61
2023/01/29 11:26:36;;;;;;;60.10;32.92;;;5.30;99.90;;;;;;5051373;28;20064;-60
2023/01/29 11:29:02;;;;;;;47.72;31.38;;;5.30;99.90;;;;;;5051321;28;20037;-61
2023/01/29 11:31:38;;;;;;;49.33;30.95;;;5.10;99.90;;;;;;5061897;28;20035;-61
2023/01/29 11:34:20;;;;;;;49.75;31.60;;;5.30;99.90;;;;;;5050071;28;20092;-61
2023/01/29 11:36:54;;;;;;;50.47;32.08;;;5.20;99.90;;;;;;5051141;28;20553;-59
2023/01/29 11:39:22;;;;;;;47.33;30.00;;;5.20;99.90;;;;;;5051011;28;20044;-61
2023/01/29 11:41:57;;;;;;;52.35;33.70;;;5.30;99.90;;;;;;5050856;28;20080;-61
2023/01/29 11:44:41;;;;;;;51.95;30.65;;;5.20;99.90;;;;;;5050874;28;20091;-59
2023/01/29 11:47:19;;;;;;;51.33;31.67;;;5.20;99.90;;;;;;5050905;28;20552;-59
2023/01/29 11:49:52;;;;;;;56.38;32.90;;;5.20;99.90;;;;;;5134250;27;20088;-60
2023/01/29 11:52:32;;;;;;;55.35;33.67;;;5.20;99.90;;;;;;5134270;27;20084;-60
2023/01/29 11:55:05;;;;;;;52.50;31.67;;;5.10;99.90;;;;;;5133968;27;20057;-60
2023/01/29 11:57:35;;;;;;;52.33;30.40;;;5.30;99.90;;;;;;5150306;27;20061;-60
2023/01/29 12:00:19;;;;;;;52.45;31.48;;;5.30;99.90;;;;;;5133075;27;20027;-60
2023/01/29 12:02:58;;;;;;;52.67;32.58;;;5.20;99.90;;;;;;5132314;27;20092;-60
2023/01/29 12:05:26;;;;;;;58.65;33.22;;;5.30;99.90;;;;;;5134068;27;20092;-60
2023/01/29 12:07:58;;;;;;;51.08;31.70;;;5.20;99.90;;;;;;5149888;27;20061;-60
2023/01/29 12:10:34;;;;;;;46.15;30.95;;;5.40;99.90;;;;;;5133702;27;20038;-60
2023/01/29 12:13:26;;;;;;;51.70;31.30;;;5.50;99.90;;;;;;5133926;27;20117;-60
2023/01/29 12:16:19;;;;;;;49.47;30.98;;;5.30;99.90;;;;;;5124668;27;20055;-60
2023/01/29 12:18:53;;;;;;;45.83;28.30;;;5.40;99.90;;;;;;5119035;27;20044;-60
2023/01/29 12:21:33;;;;;;;46.95;28.65;;;5.40;99.90;;;;;;5133802;27;20046;-60
2023/01/29 12:24:06;;;;;;;;;;;5.50;99.90;;;;;;5133975;27;20039;-60
2023/01/29 12:26:41;;;;;;;40.58;26.38;;;5.30;99.90;;;;;;5133512;27;19915;-60
2023/01/29 12:29:22;;;;;;;46.00;26.70;;;5.40;99.90;;;;;;5133349;27;20069;-60
2023/01/29 12:31:54;;;;;;;37.55;24.95;;;5.40;99.90;;;;;;5132191;27;20477;-60
2023/01/29 12:34:32;;;;;;;43.88;24.58;;;5.60;99.90;;;;;;5132360;27;20480;-60
2023/01/29 12:37:20;;;;;;;37.95;23.65;;;5.50;99.90;;;;;;5115086;27;20553;-59
2023/01/29 12:39:47;;;;;;;38.58;23.55;;;5.60;99.90;;;;;;5133160;27;20489;-60
2023/01/29 12:42:21;;;;;;;35.28;23.98;;;5.50;99.90;;;;;;5133153;27;20053;-61
2023/01/29 12:44:55;;;;;;;36.05;23.67;;;5.70;99.90;;;;;;5132969;27;20490;-60
2023/01/29 12:47:24;;;;;;;35.65;22.67;;;5.60;99.90;;;;;;5133045;27;20035;-60
2023/01/29 12:49:55;;;;;;;33.28;23.05;;;5.50;99.90;;;;;;5114658;27;20553;-60
2023/01/29 12:52:38;;;;;;;34.83;22.77;;;5.50;99.90;;;;;;5149175;27;20042;-60
2023/01/29 12:55:19;;;;;;;36.08;23.42;;;5.70;99.90;;;;;;5132639;27;20374;-59
2023/01/29 12:58:00;;;;;;;39.00;22.90;;;5.60;99.90;;;;;;5132705;27;20103;-60
2023/01/29 13:00:31;;;;;;;34.85;21.67;;;5.70;99.90;;;;;;5105982;27;20072;-61
2023/01/29 13:03:19;;;;;;;31.55;22.73;;;5.70;99.90;;;;;;5131101;27;20071;-60
2023/01/29 13:05:57;;;;;;;34.70;21.80;;;5.60;99.90;;;;;;5132836;27;20035;-60
2023/01/29 13:08:30;;;;;;;30.83;21.10;;;5.70;99.90;;;;;;5119441;27;20039;-60
2023/01/29 13:11:00;;;;;;;33.35;21.55;;;5.60;99.90;;;;;;5132956;27;20039;-60
2023/01/29 13:13:38;;;;;;;31.40;21.27;;;5.50;99.90;;;;;;5132723;27;20485;-60
2023/01/29 13:16:09;;;;;;;30.50;20.38;;;5.50;99.90;;;;;;5132423;27;20096;-60
2023/01/29 13:19:02;;;;;;;33.70;21.63;;;5.60;99.90;;;;;;5119089;27;20461;-59
2023/01/29 13:21:39;;;;;;;34.33;21.60;;;5.60;99.90;;;;;;5121115;28;20049;-60
2023/01/29 13:24:13;;;;;;;29.33;19.63;;;5.60;99.90;;;;;;5132398;27;20047;-60
2023/01/29 13:26:39;;;;;;;31.08;20.75;;;5.90;99.90;;;;;;5132948;27;20027;-59
2023/01/29 13:29:05;;;;;;;28.80;19.88;;;5.50;99.90;;;;;;5132471;27;20079;-60